Mattapoisett, Massachusetts
Current Conditions -  °F | °C
As of 4:53 AM on Sunday 23 Nov 2014 (Local Time) from KEWB Reporting Station
Broken Clouds Broken Clouds  
Wind Chill: 39°   Ceiling: 9500
Heat Index: 45°   Visibility: 10mi
Dew Point: 29°   Wind: 12mph
Humidity: 53%   Direction: 230°SW
Pressure: 30.12"   Gusts: NA
Location:  41.66°N, 70.82°W
Report Text: KEWB 230953Z AUTO 23010KT 10SM BKN095 BKN120 07/M02 A3012 RMK AO2 SLP201 T00721017
Loading
Personal Weather Stations






























Interactive Weather Map New forecast layout! Learn more

10-Day Weather Forecast

Advertisements
Track Severe Weather on mobile